Time;durP1;ratioP1;P1;durP2;ratioP2;P2;SDS_P1;SDS_P2;PMS_P1;PMS_P2;Temp;Humidity;BMP_temperature;BMP_pressure;BME280_temperature;BME280_humidity;BME280_pressure;Samples;Min_cycle;Max_cycle;Signal;HPM_P1;HPM_P2
2022/10/16 13:44:49;;;;;;;1.38;1.27;;;;;;;18.14;30.83;97342.53;5047297;27;88583;-62
2022/10/16 13:47:19;;;;;;;1.55;1.13;;;;;;;17.97;31.56;97343.47;5075382;28;20537;-63
2022/10/16 13:49:47;;;;;;;2.05;1.30;;;;;;;17.85;32.37;97345.84;5070548;28;20052;-62
2022/10/16 13:52:20;;;;;;;1.58;1.20;;;;;;;17.77;32.70;97353.34;5070090;28;20052;-62
2022/10/16 13:54:47;;;;;;;3.00;1.45;;;;;;;17.73;33.05;97346.53;5070382;28;20045;-62
2022/10/16 13:57:16;;;;;;;2.10;1.63;;;;;;;17.73;33.17;97355.28;5039938;28;20546;-62
2022/10/16 13:59:45;;;;;;;2.03;1.52;;;;;;;17.66;33.31;97354.78;5038377;28;20106;-62
2022/10/16 14:02:22;;;;;;;1.75;1.30;;;;;;;17.64;33.22;97358.47;5071293;28;20059;-62
2022/10/16 14:04:50;;;;;;;1.70;1.48;;;;;;;17.60;33.45;97356.88;5070175;28;20498;-62
2022/10/16 14:07:24;;;;;;;2.38;1.50;;;;;;;17.49;34.37;97363.59;5067444;28;20041;-62
2022/10/16 14:09:52;;;;;;;1.48;1.27;;;;;;;17.42;34.24;97362.22;5069909;28;20045;-63
2022/10/16 14:12:21;;;;;;;2.08;1.52;;;;;;;17.37;34.96;97364.28;5069900;28;20059;-63
2022/10/16 14:14:52;;;;;;;2.97;1.73;;;;;;;17.25;34.56;97360.50;5070076;28;20052;-62
2022/10/16 14:17:23;;;;;;;1.98;1.33;;;;;;;17.18;34.51;97371.38;5070013;28;20059;-63
2022/10/16 14:19:54;;;;;;;1.58;1.27;;;;;;;17.12;35.33;97365.53;5070837;28;20040;-62
2022/10/16 14:22:30;;;;;;;3.47;1.75;;;;;;;17.08;35.15;97372.78;5069889;28;20048;-62
2022/10/16 14:24:58;;;;;;;1.63;1.35;;;;;;;17.00;35.26;97367.00;5069715;28;20045;-62
2022/10/16 14:27:30;;;;;;;2.15;1.33;;;;;;;16.97;35.68;97369.78;5069816;28;20055;-62
2022/10/16 14:30:21;;;;;;;4.95;2.88;;;;;;;16.90;35.86;97379.81;5069700;28;20482;-62
2022/10/16 14:32:58;;;;;;;3.08;1.67;;;;;;;16.81;35.88;97381.16;5069536;28;20084;-63
2022/10/16 14:35:30;;;;;;;2.55;1.13;;;;;;;16.67;36.62;97382.69;5069496;28;20045;-62
2022/10/16 14:38:00;;;;;;;1.73;1.42;;;;;;;16.65;36.57;97387.19;5070411;28;20457;-62
2022/10/16 14:40:31;;;;;;;2.22;1.35;;;;;;;16.61;36.80;97393.56;5069662;28;20045;-63
2022/10/16 14:42:59;;;;;;;1.90;1.45;;;;;;;16.55;36.98;97385.94;5068992;28;20098;-63
2022/10/16 14:45:34;;;;;;;2.80;1.60;;;;;;;16.54;37.38;97394.78;5071115;28;20067;-63
2022/10/16 14:48:05;;;;;;;1.90;1.50;;;;;;;16.41;37.25;97392.72;5069048;28;20143;-63
2022/10/16 14:50:33;;;;;;;4.15;1.70;;;;;;;16.30;37.17;97387.13;5069304;28;20099;-62
2022/10/16 14:53:02;;;;;;;3.00;1.70;;;;;;;16.16;37.82;97390.41;5069182;28;20056;-62
2022/10/16 14:55:30;;;;;;;5.30;1.90;;;;;;;16.10;38.03;97388.09;5059223;28;20041;-63
2022/10/16 14:57:59;;;;;;;3.92;1.80;;;;;;;15.98;38.27;97385.06;5055955;28;20053;-63
2022/10/16 15:00:28;;;;;;;2.47;1.52;;;;;;;15.88;38.76;97396.94;5056077;28;20049;-63
2022/10/16 15:02:55;;;;;;;4.00;1.50;;;;;;;15.82;38.83;97392.81;5055950;28;20049;-63
2022/10/16 15:05:26;;;;;;;3.50;1.77;;;;;;;15.72;39.20;97404.72;5055834;28;20045;-63
2022/10/16 15:07:54;;;;;;;1.50;1.40;;;;;;;15.58;39.38;97398.28;5055827;28;20118;-62
2022/10/16 15:10:24;;;;;;;1.73;1.48;;;;;;;15.51;39.57;97404.75;5055708;28;20045;-63
2022/10/16 15:12:53;;;;;;;1.17;1.17;;;;;;;15.41;39.77;97406.91;5055742;28;20061;-62
2022/10/16 15:15:31;;;;;;;1.52;1.42;;;;;;;15.21;40.10;97405.16;5055648;28;20041;-63
2022/10/16 15:18:00;;;;;;;2.63;1.73;;;;;;;15.01;40.49;97413.00;5055552;28;20049;-63
2022/10/16 15:20:30;;;;;;;4.53;1.75;;;;;;;14.89;41.21;97419.63;5055362;28;20045;-62
2022/10/16 15:23:00;;;;;;;1.42;1.33;;;;;;;14.73;41.71;97422.03;5055398;28;20045;-62
2022/10/16 15:25:35;;;;;;;2.30;2.00;;;;;;;14.55;41.86;97425.38;5055523;28;20060;-63
2022/10/16 15:28:06;;;;;;;2.30;1.98;;;;;;;14.40;42.28;97440.88;5055343;28;20501;-63
2022/10/16 15:30:35;;;;;;;3.88;2.20;;;;;;;14.22;42.75;97430.16;5055325;28;20053;-62
2022/10/16 15:33:03;;;;;;;1.67;1.38;;;;;;;14.07;43.15;97441.25;5055254;28;20056;-63
2022/10/16 15:35:31;;;;;;;2.60;1.63;;;;;;;13.95;43.73;97437.31;5055378;28;20084;-63
2022/10/16 15:37:59;;;;;;;2.47;1.80;;;;;;;13.75;44.06;97445.03;5055171;28;20130;-62
2022/10/16 15:40:27;;;;;;;2.55;1.80;;;;;;;13.69;44.36;97445.25;5055201;28;20053;-62
2022/10/16 15:42:54;;;;;;;3.72;2.30;;;;;;;13.58;44.91;97450.88;5054855;28;20115;-62
2022/10/16 15:45:22;;;;;;;2.85;2.10;;;;;;;13.38;45.52;97451.56;5055185;28;20047;-62
2022/10/16 15:47:51;;;;;;;1.65;1.55;;;;;;;13.18;46.11;97455.72;5055046;28;20049;-63
2022/10/16 15:50:19;;;;;;;2.53;2.33;;;;;;;13.09;46.24;97456.91;5054953;28;20052;-62
2022/10/16 15:52:46;;;;;;;1.60;1.50;;;;;;;12.97;46.67;97458.16;5055033;28;20487;-62
2022/10/16 15:55:15;;;;;;;2.22;1.83;;;;;;;12.88;46.81;97464.59;5054862;28;20131;-63
2022/10/16 15:57:43;;;;;;;2.25;1.80;;;;;;;12.76;47.26;97473.72;5054874;28;20049;-62
2022/10/16 16:00:13;;;;;;;2.55;1.88;;;;;;;12.63;47.75;97477.63;5054841;28;20041;-63
2022/10/16 16:02:41;;;;;;;2.78;1.88;;;;;;;12.44;48.00;97478.22;5054964;28;20060;-62
2022/10/16 16:05:12;;;;;;;3.63;2.03;;;;;;;12.43;48.29;97481.72;5054634;28;20084;-63
2022/10/16 16:07:40;;;;;;;2.75;1.90;;;;;;;12.31;48.50;97482.97;5053799;28;20045;-62
2022/10/16 16:10:10;;;;;;;2.15;1.88;;;;;;;12.22;49.05;97484.09;5054457;28;20051;-62
2022/10/16 16:12:38;;;;;;;2.83;2.00;;;;;;;12.15;49.49;97485.19;5054430;28;20048;-62
2022/10/16 16:15:07;;;;;;;2.85;2.00;;;;;;;12.12;49.42;97494.03;5054366;28;20485;-63
2022/10/16 16:17:37;;;;;;;3.15;1.88;;;;;;;12.05;49.27;97492.44;5054449;28;20514;-63
2022/10/16 16:20:09;;;;;;;1.92;1.80;;;;;;;11.99;49.58;97493.50;5054300;28;20052;-62
2022/10/16 16:22:38;;;;;;;3.70;1.75;;;;;;;11.88;50.28;97500.78;5054210;28;20053;-63
2022/10/16 16:25:11;;;;;;;2.50;1.58;;;;;;;11.86;50.17;97497.34;5054046;28;20060;-62
2022/10/16 16:27:42;;;;;;;1.70;1.55;;;;;;;11.80;50.46;97500.16;5054197;28;20049;-62
2022/10/16 16:30:12;;;;;;;;;;;;;;;11.74;50.72;97499.41;5054628;28;20045;-63
2022/10/16 16:32:39;;;;;;;2.20;1.75;;;;;;;11.53;50.99;97507.84;5054196;28;20003;-62
2022/10/16 16:35:08;;;;;;;2.08;1.85;;;;;;;11.44;51.27;97507.19;5054143;28;20041;-63
2022/10/16 16:37:37;;;;;;;3.78;1.60;;;;;;;11.41;51.62;97511.66;5054087;28;20418;-62
2022/10/16 16:40:05;;;;;;;2.33;1.70;;;;;;;11.24;52.19;97515.56;5053968;28;20045;-61
2022/10/16 16:42:32;;;;;;;2.05;1.65;;;;;;;11.21;52.47;97520.88;5053609;28;20491;-63
2022/10/16 16:45:01;;;;;;;2.20;2.00;;;;;;;11.19;52.30;97518.28;5053749;28;20053;-62
2022/10/16 16:47:29;;;;;;;4.05;1.85;;;;;;;11.15;52.47;97524.50;5053855;28;20056;-63
2022/10/16 16:49:57;;;;;;;2.30;1.67;;;;;;;11.10;52.92;97527.22;5053733;28;20530;-63
2022/10/16 16:52:26;;;;;;;2.83;2.17;;;;;;;11.01;52.95;97537.09;5053877;28;20047;-62
2022/10/16 16:54:56;;;;;;;2.88;2.03;;;;;;;10.96;53.58;97527.56;5053838;28;20498;-62
2022/10/16 16:57:25;;;;;;;5.75;2.17;;;;;;;10.85;53.78;97533.06;5054062;28;20049;-62
2022/10/16 16:59:54;;;;;;;3.33;2.40;;;;;;;10.80;53.96;97534.03;5053612;28;20092;-62
2022/10/16 17:02:22;;;;;;;4.32;2.40;;;;;;;10.73;54.20;97538.56;5053495;28;20568;-62
2022/10/16 17:04:53;;;;;;;4.97;2.55;;;;;;;10.71;54.53;97540.34;5053464;28;20049;-62
2022/10/16 17:07:20;;;;;;;5.43;2.45;;;;;;;10.65;54.69;97535.28;5053739;28;20449;-63
2022/10/16 17:09:48;;;;;;;3.85;2.20;;;;;;;10.61;55.01;97544.94;5053425;28;20098;-63
2022/10/16 17:12:19;;;;;;;2.72;1.90;;;;;;;10.54;55.24;97543.34;5053382;28;20056;-63
2022/10/16 17:14:47;;;;;;;2.33;1.77;;;;;;;10.53;55.31;97552.13;5053502;28;20053;-63
2022/10/16 17:17:14;;;;;;;5.50;2.25;;;;;;;10.48;55.58;97552.22;5053083;28;20131;-63
2022/10/16 17:19:42;;;;;;;2.75;2.10;;;;;;;10.47;55.50;97546.09;5053202;28;20059;-63
2022/10/16 17:22:09;;;;;;;2.95;2.20;;;;;;;10.49;55.62;97546.94;5053340;28;20080;-63
2022/10/16 17:24:38;;;;;;;2.45;2.20;;;;;;;10.50;55.92;97550.41;5053272;28;20099;-63
2022/10/16 17:27:05;;;;;;;4.57;2.13;;;;;;;10.48;55.90;97547.81;5053122;28;20131;-63
2022/10/16 17:29:34;;;;;;;4.55;2.47;;;;;;;10.49;55.99;97557.41;5053101;28;20081;-63
2022/10/16 17:32:02;;;;;;;4.57;2.17;;;;;;;10.41;56.05;97551.44;5052918;28;20130;-64
2022/10/16 17:34:30;;;;;;;2.55;1.95;;;;;;;10.39;56.54;97554.97;5053145;28;20049;-63
2022/10/16 17:37:01;;;;;;;2.30;2.10;;;;;;;10.29;56.72;97552.53;5053197;28;20052;-63
2022/10/16 17:39:29;;;;;;;3.00;1.92;;;;;;;10.28;56.92;97550.84;5053057;28;20049;-63
2022/10/16 17:41:57;;;;;;;5.10;2.28;;;;;;;10.27;56.96;97549.13;5053017;28;20049;-62
2022/10/16 17:44:24;;;;;;;3.25;2.15;;;;;;;10.22;57.17;97553.56;5052757;28;20053;-63
2022/10/16 17:46:56;;;;;;;6.25;2.30;;;;;;;10.22;57.35;97558.81;5053031;28;20545;-63
2022/10/16 17:49:24;;;;;;;2.72;2.33;;;;;;;10.18;57.62;97555.38;5052789;28;20056;-62
2022/10/16 17:51:53;;;;;;;2.95;2.30;;;;;;;10.16;57.32;97551.94;5052988;28;20044;-63
2022/10/16 17:54:21;;;;;;;4.75;2.33;;;;;;;10.21;57.52;97564.94;5053139;28;20048;-63
2022/10/16 17:56:48;;;;;;;2.35;2.00;;;;;;;10.23;57.43;97560.50;5052988;28;20049;-63
2022/10/16 17:59:21;;;;;;;5.38;2.13;;;;;;;10.21;57.62;97570.16;5052869;28;20081;-63
2022/10/16 18:01:49;;;;;;;4.75;2.22;;;;;;;10.22;57.64;97575.38;5052924;28;20057;-63
2022/10/16 18:04:19;;;;;;;2.88;2.53;;;;;;;10.23;57.60;97578.81;5052689;28;20045;-63
2022/10/16 18:06:46;;;;;;;2.72;2.20;;;;;;;10.16;58.00;97577.22;5052873;28;20099;-63
2022/10/16 18:09:16;;;;;;;2.42;2.22;;;;;;;10.19;58.02;97582.41;5052825;28;20498;-63
2022/10/16 18:11:44;;;;;;;2.50;2.30;;;;;;;10.22;57.99;97583.22;5052563;28;20391;-62
2022/10/16 18:14:15;;;;;;;3.33;1.95;;;;;;;10.19;58.06;97579.78;5052836;28;20071;-63
2022/10/16 18:16:43;;;;;;;4.28;1.98;;;;;;;10.09;58.41;97582.56;5052787;28;20041;-62
2022/10/16 18:19:12;;;;;;;3.45;2.28;;;;;;;10.06;58.26;97587.00;5052737;28;20045;-63
2022/10/16 18:21:41;;;;;;;2.50;2.05;;;;;;;9.99;58.34;97584.50;5052809;28;20041;-63
2022/10/16 18:24:10;;;;;;;4.28;2.20;;;;;;;9.94;58.79;97591.56;5052491;28;20110;-63
2022/10/16 18:26:41;;;;;;;3.13;1.95;;;;;;;9.94;58.89;97590.72;5052682;28;20521;-62
2022/10/16 18:29:10;;;;;;;2.65;2.45;;;;;;;9.94;58.78;97594.16;5052619;28;20053;-62
2022/10/16 18:31:38;;;;;;;2.80;2.47;;;;;;;9.92;58.87;97606.44;5056395;28;20076;-63
2022/10/16 18:34:09;;;;;;;4.15;2.40;;;;;;;9.95;58.86;97603.75;5056385;28;20127;-62
2022/10/16 18:36:36;;;;;;;2.28;2.08;;;;;;;9.90;58.80;97600.34;5056426;28;20434;-63
2022/10/16 18:39:09;;;;;;;2.45;2.20;;;;;;;9.94;58.74;97601.19;5056541;28;20048;-62
2022/10/16 18:41:37;;;;;;;3.45;2.08;;;;;;;9.94;58.35;97607.25;5056291;28;20045;-63
2022/10/16 18:44:05;;;;;;;2.47;1.70;;;;;;;9.94;58.22;97611.63;5055874;28;20041;-63
2022/10/16 18:46:34;;;;;;;4.25;2.42;;;;;;;9.92;58.99;97609.03;5056338;28;20045;-63
2022/10/16 18:49:03;;;;;;;2.50;2.15;;;;;;;9.84;58.88;97619.63;5056108;28;20052;-63
2022/10/16 18:51:32;;;;;;;2.97;2.08;;;;;;;9.77;58.86;97620.63;5056167;28;20128;-63
2022/10/16 18:54:02;;;;;;;2.70;2.50;;;;;;;9.67;59.08;97627.78;5056025;28;20049;-63
2022/10/16 18:56:32;;;;;;;3.97;3.00;;;;;;;9.51;58.94;97627.16;5056201;28;20049;-62
2022/10/16 18:59:01;;;;;;;4.95;2.28;;;;;;;9.44;59.56;97626.41;5055735;28;20089;-63
2022/10/16 19:01:31;;;;;;;3.10;2.00;;;;;;;9.28;59.77;97631.00;5055753;28;20098;-63
2022/10/16 19:04:00;;;;;;;3.27;2.00;;;;;;;9.22;59.88;97633.72;5055949;28;20053;-63
2022/10/16 19:06:30;;;;;;;2.22;1.77;;;;;;;9.15;60.11;97634.69;5055944;28;20131;-63
2022/10/16 19:08:57;;;;;;;2.35;2.00;;;;;;;9.05;60.14;97637.44;5055768;28;20053;-63
2022/10/16 19:11:26;;;;;;;2.63;2.10;;;;;;;8.88;60.94;97642.03;5055845;28;20132;-63
2022/10/16 19:13:56;;;;;;;2.85;2.15;;;;;;;8.68;61.72;97641.41;5055713;28;20048;-62
2022/10/16 19:16:25;;;;;;;1.73;1.63;;;;;;;8.53;62.15;97637.22;5055576;28;20445;-63
2022/10/16 19:18:54;;;;;;;2.45;2.25;;;;;;;8.49;62.52;97640.72;5055617;28;20476;-63
2022/10/16 19:21:23;;;;;;;2.63;1.90;;;;;;;8.41;62.81;97660.81;5055428;28;20072;-62
2022/10/16 19:23:54;;;;;;;2.53;2.08;;;;;;;8.33;62.80;97653.94;5055522;28;20056;-63
2022/10/16 19:26:23;;;;;;;2.15;1.83;;;;;;;8.27;62.92;97654.00;5055516;28;20509;-63
2022/10/16 19:28:52;;;;;;;3.10;1.60;;;;;;;8.21;63.04;97654.06;5055508;28;20049;-63
2022/10/16 19:31:23;;;;;;;2.13;1.67;;;;;;;8.15;63.34;97659.34;5055339;28;20525;-63
2022/10/16 19:33:53;;;;;;;2.75;2.28;;;;;;;8.11;63.49;97657.66;5055390;28;20049;-63
2022/10/16 19:36:23;;;;;;;2.63;2.25;;;;;;;8.00;63.87;97663.84;5055396;28;20128;-63
2022/10/16 19:38:55;;;;;;;2.00;1.80;;;;;;;7.96;64.22;97663.03;5055076;28;20045;-63
2022/10/16 19:41:23;;;;;;;2.88;1.90;;;;;;;7.84;64.74;97666.59;5055022;28;20045;-63
2022/10/16 19:43:51;;;;;;;3.17;2.30;;;;;;;7.68;65.20;97665.00;5054883;28;20057;-63
2022/10/16 19:46:23;;;;;;;2.50;2.08;;;;;;;7.58;65.66;97670.28;5054835;28;20052;-63
2022/10/16 19:48:55;;;;;;;2.67;2.10;;;;;;;7.58;66.02;97669.41;5054865;28;20049;-63
2022/10/16 19:51:23;;;;;;;1.75;1.65;;;;;;;7.57;65.83;97673.78;5055021;28;20045;-63
2022/10/16 19:53:56;;;;;;;2.88;2.20;;;;;;;7.49;65.98;97672.09;5054914;28;20064;-63
2022/10/16 19:56:24;;;;;;;1.98;1.80;;;;;;;7.50;66.17;97676.44;5054908;28;20186;-63
2022/10/16 19:58:54;;;;;;;2.45;1.88;;;;;;;7.49;66.38;97678.16;5054933;28;20044;-63
2022/10/16 20:01:24;;;;;;;3.92;2.17;;;;;;;7.52;66.26;97672.06;5054709;28;20486;-63
2022/10/16 20:03:53;;;;;;;2.67;2.00;;;;;;;7.52;66.19;97679.88;5054853;28;20045;-63
2022/10/16 20:06:25;;;;;;;3.00;1.77;;;;;;;7.48;66.11;97679.03;5054751;28;20053;-62
2022/10/16 20:08:58;;;;;;;4.35;2.17;;;;;;;7.51;65.91;97681.63;5055940;28;20048;-61
2022/10/16 20:11:28;;;;;;;3.55;2.05;;;;;;;7.50;66.06;97689.44;5055115;28;20049;-63
2022/10/16 20:13:55;;;;;;;3.05;2.17;;;;;;;7.54;66.26;97685.94;5054752;28;20045;-63
2022/10/16 20:16:25;;;;;;;2.47;2.10;;;;;;;7.58;66.16;97691.13;5054659;28;20415;-62
2022/10/16 20:18:54;;;;;;;4.63;2.17;;;;;;;7.59;65.93;97689.38;5054504;28;20132;-63
2022/10/16 20:21:23;;;;;;;4.50;2.05;;;;;;;7.50;65.71;97692.94;5054420;28;20286;-62
2022/10/16 20:23:51;;;;;;;4.28;1.90;;;;;;;7.39;66.42;97689.50;5054352;28;20090;-63
2022/10/16 20:26:21;;;;;;;2.55;2.00;;;;;;;7.42;66.18;97695.59;5054119;28;20052;-62
2022/10/16 20:28:49;;;;;;;3.03;2.22;;;;;;;7.41;65.94;97696.44;5054293;28;20132;-62
2022/10/16 20:31:21;;;;;;;2.35;1.67;;;;;;;7.40;65.83;97693.84;5054003;28;20045;-63
2022/10/16 20:33:50;;;;;;;2.90;2.33;;;;;;;7.26;65.54;97696.56;5054144;28;20513;-63
2022/10/16 20:36:20;;;;;;;4.10;2.40;;;;;;;7.12;66.09;97692.28;5054106;28;20045;-63
2022/10/16 20:38:47;;;;;;;2.10;1.80;;;;;;;7.16;66.18;97695.72;5053967;28;20049;-63
2022/10/16 20:41:18;;;;;;;2.53;1.98;;;;;;;7.08;65.80;97701.84;5053990;28;20049;-63
2022/10/16 20:43:47;;;;;;;2.83;2.03;;;;;;;7.07;66.30;97704.44;5053877;28;20049;-63
2022/10/16 20:46:17;;;;;;;2.15;1.88;;;;;;;7.05;65.97;97703.63;5053927;28;20052;-62
2022/10/16 20:48:45;;;;;;;3.35;1.98;;;;;;;7.02;66.15;97691.50;5053924;28;20052;-62
2022/10/16 20:51:17;;;;;;;4.32;1.65;;;;;;;6.98;65.92;97704.53;5054009;28;20056;-63
2022/10/16 20:53:45;;;;;;;1.90;1.65;;;;;;;6.82;66.31;97705.44;5053324;28;20049;-62
2022/10/16 20:56:14;;;;;;;2.25;1.75;;;;;;;6.74;66.01;97707.19;5053795;28;20049;-63
2022/10/16 20:58:42;;;;;;;1.88;1.52;;;;;;;6.69;66.22;97716.78;5053609;28;20049;-63
2022/10/16 21:01:13;;;;;;;4.88;1.63;;;;;;;6.57;66.04;97713.31;5053633;28;20045;-62
2022/10/16 21:03:41;;;;;;;2.20;1.80;;;;;;;6.53;66.27;97719.41;5053769;28;20051;-63
2022/10/16 21:06:09;;;;;;;2.03;1.70;;;;;;;6.44;66.17;97717.69;5053518;28;20131;-63
2022/10/16 21:08:41;;;;;;;1.83;1.42;;;;;;;6.37;66.41;97722.91;5053685;28;20048;-63
2022/10/16 21:11:16;;;;;;;1.70;1.60;;;;;;;6.32;66.23;97717.72;5053508;28;20403;-63
2022/10/16 21:13:45;;;;;;;1.42;1.33;;;;;;;6.24;66.45;97720.34;5053473;28;20078;-62
2022/10/16 21:16:14;;;;;;;3.42;1.48;;;;;;;6.09;66.66;97726.44;5053408;28;20052;-63
2022/10/16 21:18:42;;;;;;;4.35;1.70;;;;;;;6.01;66.81;97725.53;5053566;28;20045;-63
2022/10/16 21:21:09;;;;;;;2.25;1.85;;;;;;;5.96;66.81;97722.94;5053527;28;20463;-63
2022/10/16 21:23:38;;;;;;;1.50;1.40;;;;;;;5.91;66.97;97729.88;5053395;28;20502;-63
2022/10/16 21:26:07;;;;;;;1.85;1.55;;;;;;;5.86;67.23;97734.19;5053235;28;20402;-63
2022/10/16 21:28:34;;;;;;;1.88;1.55;;;;;;;5.81;66.67;97744.59;5053310;28;20041;-62
2022/10/16 21:31:11;;;;;;;2.67;1.58;;;;;;;5.72;66.95;97735.06;5053637;28;20053;-63
2022/10/16 21:33:38;;;;;;;1.90;1.58;;;;;;;5.70;66.93;97734.22;5053335;28;20410;-63
2022/10/16 21:36:13;;;;;;;1.60;1.50;;;;;;;5.59;67.10;97738.50;5053173;28;20111;-62
2022/10/16 21:38:43;;;;;;;2.28;1.50;;;;;;;5.50;67.42;97735.03;5053240;28;20502;-63
2022/10/16 21:41:14;;;;;;;2.88;1.40;;;;;;;5.50;67.48;97728.97;5053201;28;20170;-63
2022/10/16 21:43:42;;;;;;;2.47;1.52;;;;;;;5.45;67.46;97731.59;5052841;28;20064;-63
2022/10/16 21:46:09;;;;;;;2.03;1.83;;;;;;;5.40;67.98;97735.91;5052994;28;20164;-63
2022/10/16 21:48:38;;;;;;;5.78;1.73;;;;;;;5.34;68.11;97738.47;5053090;28;20487;-63
2022/10/16 21:51:06;;;;;;;3.10;1.52;;;;;;;5.21;68.27;97740.19;5053148;28;20098;-63
2022/10/16 21:53:34;;;;;;;2.20;1.80;;;;;;;5.16;68.83;97741.03;5053249;28;20080;-63
2022/10/16 21:56:03;;;;;;;3.70;1.80;;;;;;;5.17;68.80;97740.16;5053005;28;20379;-63
2022/10/16 21:58:32;;;;;;;2.17;1.98;;;;;;;5.18;68.54;97743.63;5053134;28;20522;-63
2022/10/16 22:01:06;;;;;;;2.10;1.73;;;;;;;5.16;68.99;97747.94;5052730;28;20411;-63
2022/10/16 22:03:33;;;;;;;3.13;1.88;;;;;;;5.07;69.26;97738.41;5052920;28;20053;-63
2022/10/16 22:06:02;;;;;;;2.63;1.80;;;;;;;5.00;69.97;97744.44;5055890;28;20498;-63
2022/10/16 22:08:31;;;;;;;3.00;2.10;;;;;;;4.98;69.84;97744.44;5056907;28;20080;-63
2022/10/16 22:11:05;;;;;;;2.58;2.00;;;;;;;4.97;69.85;97745.28;5056841;28;20481;-63
2022/10/16 22:13:32;;;;;;;1.70;1.60;;;;;;;4.91;69.70;97737.50;5056791;28;20053;-63
2022/10/16 22:15:59;;;;;;;2.08;1.58;;;;;;;4.86;70.54;97753.03;5057000;28;20426;-63
2022/10/16 22:18:27;;;;;;;2.13;1.65;;;;;;;4.88;71.06;97764.25;5056768;28;20457;-63
2022/10/16 22:20:54;;;;;;;2.70;1.70;;;;;;;4.90;70.93;97757.38;5056868;28;20482;-63
2022/10/16 22:23:23;;;;;;;4.22;2.60;;;;;;;4.88;70.14;97751.28;5056612;28;20049;-63
2022/10/16 22:25:50;;;;;;;3.70;1.88;;;;;;;4.95;70.40;97756.50;5056601;28;20049;-63
2022/10/16 22:28:20;;;;;;;3.58;2.20;;;;;;;4.93;70.17;97754.78;5056498;28;20056;-65
2022/10/16 22:30:47;;;;;;;1.42;1.13;;;;;;;4.89;70.15;97752.16;5056581;28;20491;-63
2022/10/16 22:33:14;;;;;;;2.22;1.65;;;;;;;4.82;70.40;97753.00;5056457;28;20479;-63
2022/10/16 22:35:42;;;;;;;5.82;2.05;;;;;;;4.74;71.81;97759.03;5056261;28;20131;-62
2022/10/16 22:38:09;;;;;;;2.17;1.58;;;;;;;4.73;71.69;97757.28;5056408;28;20087;-63
2022/10/16 22:40:38;;;;;;;2.85;1.83;;;;;;;4.76;71.04;97761.63;5056410;28;20056;-63
2022/10/16 22:43:06;;;;;;;2.13;1.77;;;;;;;4.68;70.90;97761.59;5056266;28;20126;-63
2022/10/16 22:45:36;;;;;;;2.20;2.00;;;;;;;4.60;71.34;97763.28;5056213;28;20103;-62
2022/10/16 22:48:04;;;;;;;1.58;1.48;;;;;;;4.55;71.53;97758.91;5056228;28;20045;-63
2022/10/16 22:50:32;;;;;;;2.75;2.10;;;;;;;4.43;71.46;97751.94;5056132;28;20057;-62
2022/10/16 22:52:59;;;;;;;2.58;1.85;;;;;;;4.44;71.96;97758.00;5056267;28;20045;-62
2022/10/16 22:55:27;;;;;;;2.95;1.85;;;;;;;4.45;71.59;97756.28;5056072;28;20088;-62
2022/10/16 22:57:56;;;;;;;1.83;1.70;;;;;;;4.37;71.76;97762.25;5056120;28;20549;-63
2022/10/16 23:00:24;;;;;;;3.38;2.00;;;;;;;4.34;72.03;97769.16;5056051;28;20049;-63
2022/10/16 23:02:53;;;;;;;1.65;1.55;;;;;;;4.37;72.12;97772.63;5055894;28;20498;-63
2022/10/16 23:05:20;;;;;;;3.40;2.08;;;;;;;4.32;72.45;97765.69;5055729;28;20049;-63
2022/10/16 23:07:48;;;;;;;3.10;1.75;;;;;;;4.32;72.54;97763.09;5055900;28;20102;-63
2022/10/16 23:10:16;;;;;;;2.72;2.22;;;;;;;4.31;72.12;97767.44;5055876;28;20073;-63
2022/10/16 23:12:45;;;;;;;3.40;2.20;;;;;;;4.30;71.82;97766.56;5055864;28;20048;-63
2022/10/16 23:15:12;;;;;;;2.10;1.80;;;;;;;4.33;72.02;97770.03;5055259;28;20056;-63
2022/10/16 23:17:44;;;;;;;2.33;1.63;;;;;;;4.30;72.08;97770.84;5055704;28;20059;-63
2022/10/16 23:20:13;;;;;;;2.42;1.90;;;;;;;4.25;72.10;97769.97;5055483;28;20049;-63
2022/10/16 23:22:40;;;;;;;1.95;1.70;;;;;;;4.28;72.22;97773.44;5055653;28;20111;-63
2022/10/16 23:25:08;;;;;;;2.25;1.58;;;;;;;4.26;72.45;97772.56;5055558;28;20372;-62
2022/10/16 23:27:35;;;;;;;3.08;2.00;;;;;;;4.20;73.10;97774.22;5055398;28;20088;-63
2022/10/16 23:30:02;;;;;;;2.00;1.60;;;;;;;4.25;72.66;97777.75;5055458;28;20049;-63
2022/10/16 23:32:29;;;;;;;2.20;1.98;;;;;;;4.24;72.46;97782.03;5055551;28;20059;-63
2022/10/16 23:34:57;;;;;;;5.25;1.73;;;;;;;4.26;72.26;97787.25;5055309;28;20106;-63
2022/10/16 23:37:25;;;;;;;2.72;1.98;;;;;;;4.13;72.04;97776.78;5055160;28;20059;-63
2022/10/16 23:39:53;;;;;;;2.65;1.90;;;;;;;4.15;71.89;97784.56;5055187;28;20175;-63
2022/10/16 23:42:23;;;;;;;2.28;1.70;;;;;;;4.12;72.43;97781.97;5054893;28;20049;-63
2022/10/16 23:44:50;;;;;;;2.22;1.63;;;;;;;4.09;72.73;97787.97;5055087;28;20049;-63
2022/10/16 23:47:17;;;;;;;2.08;1.85;;;;;;;4.03;72.64;97783.63;5055010;28;20053;-63
2022/10/16 23:49:44;;;;;;;2.10;1.90;;;;;;;4.03;72.96;97780.16;5054984;28;20045;-62
2022/10/16 23:52:11;;;;;;;2.08;1.60;;;;;;;4.05;73.29;97778.44;5054881;28;20049;-63
2022/10/16 23:54:40;;;;;;;1.73;1.48;;;;;;;4.10;73.09;97781.97;5054967;28;20123;-62
2022/10/16 23:57:09;;;;;;;2.40;2.05;;;;;;;4.09;72.97;97782.78;5054854;28;20041;-63
2022/10/16 23:59:37;;;;;;;5.22;2.10;;;;;;;4.07;72.87;97794.00;5054791;28;20049;-63
